Time;durP1;ratioP1;P1;durP2;ratioP2;P2;SDS_P1;SDS_P2;PMS_P1;PMS_P2;Temp;Humidity;BMP_temperature;BMP_pressure;BME280_temperature;BME280_humidity;BME280_pressure;Samples;Min_cycle;Max_cycle;Signal;HPM_P1;HPM_P2
2021/04/18 00:04:21;;;;;;;29.70;5.63;;;4.90;99.90;;;;;;10458489;28;20055;-64
2021/04/18 00:09:23;;;;;;;23.98;6.15;;;4.90;99.90;;;;;;10460312;28;20052;-64
2021/04/18 00:14:25;;;;;;;36.13;7.53;;;5.00;99.90;;;;;;10464856;28;20056;-64
2021/04/18 00:19:26;;;;;;;26.27;5.32;;;5.10;99.90;;;;;;10467361;28;20067;-64
2021/04/18 00:24:28;;;;;;;29.10;6.80;;;5.30;99.90;;;;;;10464868;28;20040;-64
2021/04/18 00:29:30;;;;;;;25.48;6.20;;;5.40;99.90;;;;;;10465031;28;20059;-65
2021/04/18 00:34:31;;;;;;;10.40;5.82;;;5.40;99.90;;;;;;10465302;28;20063;-64
2021/04/18 00:39:35;;;;;;;19.58;6.25;;;5.40;99.90;;;;;;10465644;28;20048;-65
2021/04/18 00:44:37;;;;;;;37.10;8.32;;;5.40;99.90;;;;;;10464848;28;20052;-65
2021/04/18 00:49:38;;;;;;;42.88;8.80;;;5.50;99.90;;;;;;10462454;28;20052;-65
2021/04/18 00:54:41;;;;;;;33.08;6.88;;;5.60;99.90;;;;;;10462846;28;20044;-63
2021/04/18 00:59:43;;;;;;;28.88;8.77;;;5.70;99.90;;;;;;10467399;28;20044;-66
2021/04/18 01:04:44;;;;;;;23.75;6.50;;;5.70;99.90;;;;;;10467475;28;20144;-64
2021/04/18 01:09:46;;;;;;;24.95;6.13;;;5.70;99.90;;;;;;10460931;28;20070;-65
2021/04/18 01:14:48;;;;;;;24.90;5.28;;;5.70;99.90;;;;;;10467744;28;20256;-64
2021/04/18 01:19:49;;;;;;;20.52;6.38;;;5.60;99.90;;;;;;10466167;28;20097;-64
2021/04/18 01:24:51;;;;;;;24.45;5.93;;;5.60;99.90;;;;;;10466600;28;20457;-64
2021/04/18 01:29:53;;;;;;;23.87;6.83;;;5.40;99.90;;;;;;10468734;28;20480;-64
2021/04/18 01:34:55;;;;;;;26.73;6.38;;;5.30;99.90;;;;;;10468115;28;20053;-65
2021/04/18 01:39:57;;;;;;;25.80;6.25;;;5.20;99.90;;;;;;10467114;28;20447;-65
2021/04/18 01:44:58;;;;;;;39.42;7.18;;;5.20;99.90;;;;;;10467577;28;20492;-64
2021/04/18 01:49:59;;;;;;;25.55;6.70;;;5.20;99.90;;;;;;10466994;28;20053;-63
2021/04/18 01:55:02;;;;;;;15.13;6.20;;;5.30;99.90;;;;;;10467589;28;20045;-63
2021/04/18 02:00:05;;;;;;;32.97;6.75;;;5.40;99.90;;;;;;10466966;28;20594;-64
2021/04/18 02:05:07;;;;;;;17.15;6.80;;;5.30;99.90;;;;;;10467575;28;20552;-64
2021/04/18 02:10:10;;;;;;;19.95;5.80;;;5.20;99.90;;;;;;10467929;28;20115;-63
2021/04/18 02:15:12;;;;;;;46.33;6.70;;;5.20;99.90;;;;;;10465811;28;21601;-65
2021/04/18 02:20:16;;;;;;;17.92;4.88;;;5.30;99.90;;;;;;10467207;28;20132;-65
2021/04/18 02:25:18;;;;;;;21.65;5.20;;;5.30;99.90;;;;;;10466815;28;21596;-64
2021/04/18 02:30:21;;;;;;;21.23;5.50;;;5.10;99.90;;;;;;10467024;28;20082;-65
2021/04/18 02:35:22;;;;;;;19.07;5.17;;;4.90;99.90;;;;;;10466555;28;20509;-64
2021/04/18 02:40:24;;;;;;;24.13;5.35;;;4.80;99.90;;;;;;10465561;28;20139;-64
2021/04/18 02:45:26;;;;;;;17.97;5.33;;;4.70;99.90;;;;;;10466903;28;20045;-64
2021/04/18 02:50:27;;;;;;;32.65;5.65;;;4.50;99.90;;;;;;10466722;28;20508;-64
2021/04/18 02:55:29;;;;;;;17.75;5.32;;;4.40;99.90;;;;;;10464857;28;20396;-65
2021/04/18 03:00:30;;;;;;;23.52;5.15;;;4.20;99.90;;;;;;10465498;28;20051;-64
2021/04/18 03:05:32;;;;;;;24.70;5.20;;;3.80;99.90;;;;;;10465373;28;20059;-65
2021/04/18 03:10:34;;;;;;;25.52;5.68;;;3.80;99.90;;;;;;10464984;28;20083;-64
2021/04/18 03:15:36;;;;;;;23.83;5.45;;;3.30;99.90;;;;;;10465668;28;21210;-63
2021/04/18 03:20:37;;;;;;;16.92;5.25;;;3.40;99.90;;;;;;10465517;28;20059;-64
2021/04/18 03:25:39;;;;;;;22.23;5.60;;;3.30;99.90;;;;;;10463257;28;20133;-63
2021/04/18 03:30:41;;;;;;;22.80;5.85;;;3.30;99.90;;;;;;10466116;28;20044;-63
2021/04/18 03:35:42;;;;;;;28.02;7.05;;;3.30;99.90;;;;;;10465801;28;20084;-64
2021/04/18 03:40:45;;;;;;;24.08;7.18;;;3.30;99.90;;;;;;10422227;28;20171;-65
2021/04/18 03:45:46;;;;;;;33.40;8.00;;;3.40;99.90;;;;;;10458925;28;20052;-64
2021/04/18 03:50:48;;;;;;;26.25;7.82;;;4.20;99.90;;;;;;10469585;28;20084;-64
2021/04/18 03:55:50;;;;;;;42.50;10.52;;;3.70;99.90;;;;;;10470441;28;20113;-64
2021/04/18 04:00:51;;;;;;;28.40;8.15;;;3.80;99.90;;;;;;10470795;28;20095;-66
2021/04/18 04:05:52;;;;;;;20.85;6.32;;;3.80;99.90;;;;;;10471291;28;20496;-64
2021/04/18 04:10:54;;;;;;;30.08;7.57;;;3.70;99.90;;;;;;10462275;28;20135;-64
2021/04/18 04:15:56;;;;;;;21.40;6.63;;;3.70;99.90;;;;;;10466288;28;20540;-64
2021/04/18 04:20:57;;;;;;;33.22;8.70;;;4.00;99.90;;;;;;10468253;28;20132;-65
2021/04/18 04:25:59;;;;;;;22.38;7.38;;;3.40;99.90;;;;;;10467658;28;20071;-64
2021/04/18 04:31:00;;;;;;;17.08;6.68;;;3.20;99.90;;;;;;10467162;28;20052;-65
2021/04/18 04:36:02;;;;;;;26.98;7.50;;;3.00;99.90;;;;;;10467921;28;20139;-65
2021/04/18 04:41:04;;;;;;;33.13;7.20;;;3.10;99.90;;;;;;10462853;28;20060;-65
2021/04/18 04:46:06;;;;;;;24.30;7.97;;;3.40;99.90;;;;;;10467162;28;20041;-64
2021/04/18 04:51:07;;;;;;;22.20;7.45;;;3.20;99.90;;;;;;10468568;28;20089;-68
2021/04/18 04:56:10;;;;;;;19.73;6.60;;;3.20;99.90;;;;;;10468529;28;20059;-65
2021/04/18 05:01:11;;;;;;;30.77;9.82;;;3.30;99.90;;;;;;10466848;28;20105;-65
2021/04/18 05:06:12;;;;;;;30.20;10.20;;;3.50;99.90;;;;;;10468216;28;20049;-65
2021/04/18 05:11:15;;;;;;;31.85;10.70;;;3.90;99.90;;;;;;10468421;28;20143;-65
2021/04/18 05:16:16;;;;;;;47.10;12.17;;;4.20;99.90;;;;;;10466828;28;20165;-65
2021/04/18 05:21:18;;;;;;;43.35;14.55;;;4.50;99.90;;;;;;10463713;28;20605;-64
2021/04/18 05:26:20;;;;;;;38.63;13.52;;;5.80;99.90;;;;;;10465004;28;20041;-65
2021/04/18 05:31:22;;;;;;;32.17;13.17;;;5.10;99.90;;;;;;10466221;28;20212;-66
2021/04/18 05:36:23;;;;;;;36.00;12.52;;;5.30;99.90;;;;;;10463188;28;20548;-66
2021/04/18 05:41:26;;;;;;;44.13;14.90;;;5.60;99.90;;;;;;10461530;28;20151;-65
2021/04/18 05:46:27;;;;;;;37.75;13.88;;;5.90;99.90;;;;;;10460555;28;20056;-65
2021/04/18 05:51:28;;;;;;;34.20;12.57;;;6.20;99.90;;;;;;10462819;28;20045;-65
2021/04/18 05:56:30;;;;;;;30.30;8.98;;;6.50;99.90;;;;;;10466390;28;20754;-65
2021/04/18 06:01:33;;;;;;;22.67;11.50;;;8.40;99.90;;;;;;10464295;28;20578;-66
2021/04/18 06:06:34;;;;;;;37.53;8.87;;;7.40;99.90;;;;;;10463435;28;20398;-65
2021/04/18 06:11:36;;;;;;;33.28;11.82;;;7.80;99.90;;;;;;10464726;28;20067;-66
2021/04/18 06:16:38;;;;;;;14.40;7.20;;;8.20;99.90;;;;;;10462327;28;20080;-64
2021/04/18 06:21:39;;;;;;;26.50;7.93;;;8.60;99.90;;;;;;10464135;28;20159;-63
2021/04/18 06:26:41;;;;;;;21.10;6.00;;;8.80;99.90;;;;;;10462939;28;20500;-63
2021/04/18 06:31:43;;;;;;;23.80;6.40;;;9.00;99.90;;;;;;10462105;28;20756;-65
2021/04/18 06:36:45;;;;;;;36.15;7.32;;;9.40;99.90;;;;;;10463214;28;20114;-65
2021/04/18 06:41:52;;;;;;;28.35;7.22;;;9.80;99.90;;;;;;10463275;28;20151;-64
2021/04/18 06:46:53;;;;;;;23.42;5.72;;;10.40;99.90;;;;;;10463591;28;20591;-66
2021/04/18 06:51:55;;;;;;;17.83;6.18;;;11.30;99.10;;;;;;10463723;28;20070;-64
2021/04/18 06:56:58;;;;;;;11.90;4.53;;;12.30;96.20;;;;;;10465103;28;20056;-65
2021/04/18 07:01:59;;;;;;;14.32;5.28;;;12.50;95.60;;;;;;10463555;28;20391;-63
2021/04/18 07:07:02;;;;;;;10.90;4.45;;;12.50;95.00;;;;;;10457019;28;20048;-64
2021/04/18 07:12:07;;;;;;;10.70;3.50;;;12.40;94.40;;;;;;10462802;28;21285;-65
2021/04/18 07:17:10;;;;;;;10.48;3.78;;;12.70;94.30;;;;;;10458832;28;20300;-64
2021/04/18 07:22:15;;;;;;;8.85;3.55;;;13.00;92.40;;;;;;10461602;28;20605;-65
2021/04/18 07:27:17;;;;;;;7.05;2.97;;;18.30;76.80;;;;;;10469815;28;20049;-66
2021/04/18 07:32:19;;;;;;;;;;;21.70;63.70;;;;;;10465956;28;20139;-65
2021/04/18 07:37:22;;;;;;;12.55;3.03;;;23.10;59.20;;;;;;10466431;28;19924;-65
2021/04/18 07:42:42;;;;;;;9.50;3.17;;;24.50;55.00;;;;;;10469667;28;20044;-64
2021/04/18 07:47:46;;;;;;;13.13;2.95;;;23.20;58.20;;;;;;10467912;28;20071;-65
2021/04/18 07:52:49;;;;;;;7.45;3.17;;;20.90;60.60;;;;;;10470041;28;20139;-65
2021/04/18 07:57:52;;;;;;;7.43;2.83;;;19.80;65.20;;;;;;10468929;28;20083;-64
2021/04/18 08:02:54;;;;;;;8.40;2.70;;;22.10;54.00;;;;;;10466511;28;20457;-65
2021/04/18 08:08:05;;;;;;;10.10;2.90;;;24.40;46.70;;;;;;10466788;28;20056;-65
2021/04/18 08:13:10;;;;;;;7.10;2.72;;;25.80;43.40;;;;;;10466281;28;20407;-63
2021/04/18 08:18:13;;;;;;;8.50;3.40;;;27.60;40.80;;;;;;10469089;28;20040;-64
2021/04/18 08:23:17;;;;;;;10.63;2.60;;;27.00;38.20;;;;;;10466380;28;20063;-64
2021/04/18 08:28:19;;;;;;;15.32;3.35;;;27.10;35.50;;;;;;10467423;28;20056;-65
2021/04/18 08:33:43;;;;;;;9.75;2.83;;;26.60;34.70;;;;;;10472026;28;20905;-64
2021/04/18 08:38:47;;;;;;;12.57;3.35;;;26.60;34.70;;;;;;10472651;28;20066;-64
2021/04/18 08:44:18;;;;;;;13.40;2.78;;;26.80;32.70;;;;;;10475245;28;20052;-63
2021/04/18 08:49:28;;;;;;;9.40;2.85;;;25.90;32.50;;;;;;10468193;28;20057;-64
2021/04/18 08:54:34;;;;;;;5.95;2.60;;;26.30;32.00;;;;;;10450738;28;20048;-64
2021/04/18 08:59:41;;;;;;;8.60;3.05;;;25.40;33.10;;;;;;10482919;28;20063;-64
2021/04/18 09:04:45;;;;;;;10.02;3.10;;;25.60;31.40;;;;;;10465805;28;20065;-64
2021/04/18 09:09:47;;;;;;;9.48;3.25;;;25.50;32.00;;;;;;10453387;28;20052;-63
2021/04/18 09:14:51;;;;;;;8.30;3.58;;;23.90;33.10;;;;;;10465224;28;20052;-64
2021/04/18 09:19:53;;;;;;;7.97;3.38;;;24.90;32.50;;;;;;10465807;28;20139;-64
2021/04/18 09:24:57;;;;;;;9.75;3.25;;;25.60;31.80;;;;;;10466931;28;20063;-65
2021/04/18 09:30:03;;;;;;;11.43;3.10;;;25.20;31.70;;;;;;10465571;28;20166;-65
2021/04/18 09:35:06;;;;;;;8.73;2.92;;;25.50;31.00;;;;;;10460944;28;20171;-63
2021/04/18 09:40:11;;;;;;;9.35;3.60;;;26.20;30.80;;;;;;10464913;28;20098;-66
2021/04/18 09:45:15;;;;;;;12.43;3.85;;;26.90;29.80;;;;;;10458474;28;20044;-67
2021/04/18 09:50:18;;;;;;;7.22;3.05;;;25.70;29.90;;;;;;10462028;28;20056;-63
2021/04/18 09:55:22;;;;;;;13.30;4.00;;;26.00;30.60;;;;;;10459606;28;20102;-63
2021/04/18 10:00:33;;;;;;;7.80;2.80;;;26.20;29.60;;;;;;10456732;28;20464;-64
2021/04/18 10:05:35;;;;;;;;;;;24.60;31.40;;;;;;10457603;28;20370;-64
2021/04/18 10:10:37;;;;;;;8.07;3.40;;;23.50;31.60;;;;;;10456882;28;19924;-66
2021/04/18 10:15:53;;;;;;;12.35;3.50;;;25.70;30.70;;;;;;10455154;28;20052;-63
2021/04/18 10:21:14;;;;;;;11.43;3.95;;;26.20;30.20;;;;;;10457306;28;20181;-67
2021/04/18 10:26:16;;;;;;;;;;;26.70;29.40;;;;;;10458982;28;20087;-67
2021/04/18 10:31:20;;;;;;;11.35;4.13;;;23.90;31.50;;;;;;10455982;28;19924;-67
2021/04/18 10:36:22;;;;;;;9.07;3.20;;;22.40;35.10;;;;;;10451336;28;20500;-67
2021/04/18 10:41:23;;;;;;;11.95;3.92;;;23.90;33.10;;;;;;10455385;28;20094;-67
2021/04/18 10:46:26;;;;;;;10.75;4.15;;;25.30;31.20;;;;;;10453035;28;21552;-67
2021/04/18 10:51:27;;;;;;;13.82;4.32;;;25.60;30.30;;;;;;10455735;28;20549;-69
2021/04/18 10:56:30;;;;;;;9.27;3.70;;;26.00;29.70;;;;;;10453348;28;20542;-67
2021/04/18 11:01:32;;;;;;;17.88;4.65;;;26.40;29.70;;;;;;10450524;28;20918;-67
2021/04/18 11:06:34;;;;;;;9.45;4.10;;;26.90;29.60;;;;;;10450085;28;20079;-67
2021/04/18 11:11:36;;;;;;;10.52;4.60;;;24.60;30.90;;;;;;10447529;28;20791;-67
2021/04/18 11:16:38;;;;;;;12.10;4.00;;;23.80;32.10;;;;;;10449433;28;20408;-67
2021/04/18 11:21:40;;;;;;;12.77;6.15;;;24.30;32.30;;;;;;10449348;28;20091;-69
2021/04/18 11:26:42;;;;;;;16.48;5.35;;;23.40;32.50;;;;;;10444232;28;20056;-68
2021/04/18 11:31:45;;;;;;;15.68;5.57;;;23.00;33.40;;;;;;10452643;28;20130;-67
2021/04/18 11:36:46;;;;;;;14.82;4.97;;;23.20;33.10;;;;;;10444456;28;20529;-69
2021/04/18 11:41:48;;;;;;;13.75;5.75;;;22.90;33.80;;;;;;10452230;28;21000;-69
2021/04/18 11:46:50;;;;;;;14.07;6.38;;;22.90;34.20;;;;;;10445480;28;20048;-69
2021/04/18 11:51:51;;;;;;;17.33;5.80;;;22.10;34.50;;;;;;10448893;28;20080;-69
2021/04/18 11:56:53;;;;;;;14.80;6.47;;;22.40;35.20;;;;;;10448271;28;20460;-69
2021/04/18 12:01:55;;;;;;;12.52;5.75;;;21.90;35.20;;;;;;10445963;28;20088;-68
2021/04/18 12:06:57;;;;;;;26.25;7.22;;;22.30;34.90;;;;;;10447928;28;20087;-68
2021/04/18 12:11:58;;;;;;;13.55;5.72;;;21.80;35.40;;;;;;10456320;28;20111;-69
2021/04/18 12:17:00;;;;;;;;;;;21.60;35.80;;;;;;10458167;28;20495;-69
2021/04/18 12:22:01;;;;;;;14.43;6.07;;;21.30;36.10;;;;;;10459295;28;19931;-68
2021/04/18 12:27:03;;;;;;;18.17;6.60;;;21.10;36.50;;;;;;10458391;28;20044;-68
2021/04/18 12:32:06;;;;;;;15.10;6.20;;;20.90;36.70;;;;;;10456700;28;20143;-68
2021/04/18 12:37:08;;;;;;;20.38;7.05;;;21.10;37.70;;;;;;10461776;28;20181;-67
2021/04/18 12:42:09;;;;;;;;;;;21.40;36.70;;;;;;10461408;28;20058;-69
2021/04/18 12:47:13;;;;;;;17.77;6.70;;;21.20;36.70;;;;;;10459534;28;20030;-68
2021/04/18 12:52:15;;;;;;;19.70;7.00;;;21.40;36.00;;;;;;10460703;28;20499;-69
2021/04/18 12:57:17;;;;;;;14.77;6.35;;;20.90;37.90;;;;;;10460441;28;20040;-69
2021/04/18 13:02:21;;;;;;;18.85;7.38;;;20.90;37.60;;;;;;10461108;28;20052;-69
2021/04/18 13:07:22;;;;;;;15.90;5.80;;;20.70;37.90;;;;;;10459093;28;20107;-67
2021/04/18 13:12:24;;;;;;;14.93;6.63;;;20.50;38.80;;;;;;10461732;28;20114;-69
2021/04/18 13:17:26;;;;;;;;;;;20.50;38.50;;;;;;10460917;28;20041;-66
2021/04/18 13:22:28;;;;;;;14.30;6.30;;;20.10;39.00;;;;;;10458907;28;19969;-66
2021/04/18 13:27:30;;;;;;;15.13;6.13;;;20.00;39.50;;;;;;10461130;28;20464;-66
2021/04/18 13:32:32;;;;;;;18.55;6.38;;;19.80;39.30;;;;;;10460567;28;20056;-69
2021/04/18 13:37:33;;;;;;;17.23;6.55;;;19.40;40.40;;;;;;10458814;28;20057;-65
2021/04/18 13:42:35;;;;;;;17.83;6.07;;;19.30;40.60;;;;;;10461410;28;20048;-66
2021/04/18 13:47:39;;;;;;;15.57;6.00;;;18.60;41.60;;;;;;10458747;28;20159;-65
2021/04/18 13:52:41;;;;;;;12.05;5.40;;;18.60;42.50;;;;;;10458207;28;20048;-69
2021/04/18 13:57:43;;;;;;;13.38;5.60;;;18.50;42.20;;;;;;10457462;28;20060;-68
2021/04/18 14:02:46;;;;;;;15.05;5.60;;;18.30;42.90;;;;;;10458269;28;20374;-67
2021/04/18 14:07:48;;;;;;;15.15;5.00;;;18.20;44.00;;;;;;10457412;28;20048;-68
2021/04/18 14:12:50;;;;;;;15.43;5.00;;;18.40;43.50;;;;;;10458611;28;20051;-66
2021/04/18 14:17:52;;;;;;;13.98;4.78;;;18.10;44.10;;;;;;10455363;28;20404;-66
2021/04/18 14:22:53;;;;;;;24.70;6.03;;;18.00;44.50;;;;;;10458089;28;20048;-67
2021/04/18 14:27:55;;;;;;;13.70;4.55;;;18.50;46.10;;;;;;10452931;28;20070;-67
2021/04/18 14:32:57;;;;;;;9.52;4.00;;;17.20;46.30;;;;;;10448859;28;20056;-67
2021/04/18 14:37:58;;;;;;;;;;;16.90;47.10;;;;;;10454681;28;20139;-67
2021/04/18 14:43:00;;;;;;;13.15;4.72;;;17.00;47.20;;;;;;10454384;28;19935;-66
2021/04/18 14:48:03;;;;;;;11.73;3.75;;;17.00;47.50;;;;;;10452543;28;20131;-67
2021/04/18 14:53:04;;;;;;;10.55;3.95;;;17.40;48.40;;;;;;10454321;28;20060;-66
2021/04/18 14:58:05;;;;;;;18.17;4.73;;;16.70;48.20;;;;;;10455309;28;20073;-66
2021/04/18 15:03:08;;;;;;;9.73;4.33;;;16.50;49.40;;;;;;10455624;28;21007;-66
2021/04/18 15:08:09;;;;;;;10.05;3.30;;;16.10;50.00;;;;;;10454454;28;20056;-67
2021/04/18 15:13:11;;;;;;;17.53;4.77;;;15.80;51.80;;;;;;10457142;28;20460;-67
2021/04/18 15:18:13;;;;;;;15.10;3.90;;;15.50;52.10;;;;;;10455679;28;20135;-67
2021/04/18 15:23:14;;;;;;;16.23;4.03;;;15.40;51.90;;;;;;10455892;28;20140;-67
2021/04/18 15:28:16;;;;;;;14.88;4.10;;;15.20;54.10;;;;;;10457158;28;20887;-67
2021/04/18 15:33:20;;;;;;;9.60;4.60;;;15.00;55.80;;;;;;10454107;28;20053;-67
2021/04/18 15:38:21;;;;;;;14.25;4.30;;;14.90;56.70;;;;;;10456533;28;20595;-67
2021/04/18 15:43:24;;;;;;;11.38;4.25;;;14.70;56.60;;;;;;10456538;28;20453;-67
2021/04/18 15:48:26;;;;;;;;;;;14.50;57.60;;;;;;10463323;28;20135;-68
2021/04/18 15:53:27;;;;;;;14.53;5.10;;;14.20;59.50;;;;;;10463886;28;20321;-68
2021/04/18 15:58:29;;;;;;;18.33;5.97;;;13.90;59.60;;;;;;10465192;28;20072;-67
2021/04/18 16:03:31;;;;;;;19.90;5.65;;;13.60;61.70;;;;;;10462189;28;20080;-67
2021/04/18 16:08:33;;;;;;;19.67;6.28;;;13.50;63.20;;;;;;10460689;28;20417;-66
2021/04/18 16:13:34;;;;;;;15.20;6.60;;;13.30;63.70;;;;;;10459719;28;20093;-66
2021/04/18 16:18:36;;;;;;;9.68;5.03;;;13.20;64.50;;;;;;10456451;28;20398;-67
2021/04/18 16:23:37;;;;;;;15.02;6.63;;;12.90;66.50;;;;;;10456632;28;20483;-67
2021/04/18 16:28:39;;;;;;;24.80;6.22;;;13.00;66.80;;;;;;10459904;28;20469;-68
2021/04/18 16:33:41;;;;;;;19.33;6.55;;;12.90;68.40;;;;;;10457678;28;20489;-67
2021/04/18 16:38:43;;;;;;;16.35;6.07;;;12.60;69.40;;;;;;10458490;28;20396;-67
2021/04/18 16:43:44;;;;;;;18.95;5.57;;;13.20;71.60;;;;;;10460507;28;20194;-66
2021/04/18 16:48:47;;;;;;;20.90;4.93;;;12.30;73.20;;;;;;10460686;28;20045;-65
2021/04/18 16:53:49;;;;;;;17.67;6.22;;;12.20;75.10;;;;;;10459307;28;20480;-65
2021/04/18 16:58:50;;;;;;;22.55;5.53;;;12.00;76.60;;;;;;10460675;28;20452;-65
2021/04/18 17:03:52;;;;;;;17.48;5.05;;;11.90;77.80;;;;;;10461237;28;20835;-70
2021/04/18 17:08:53;;;;;;;19.63;6.37;;;11.80;80.10;;;;;;10459981;28;20094;-67
2021/04/18 17:13:55;;;;;;;21.98;5.10;;;11.40;81.70;;;;;;10460866;28;20464;-67
2021/04/18 17:18:57;;;;;;;23.52;5.20;;;11.20;83.80;;;;;;10459762;28;20087;-68
2021/04/18 17:23:59;;;;;;;21.55;5.72;;;11.00;85.70;;;;;;10458711;28;20654;-66
2021/04/18 17:29:00;;;;;;;24.45;5.72;;;10.90;85.80;;;;;;10459005;28;20044;-66
2021/04/18 17:34:03;;;;;;;23.52;5.53;;;10.70;88.10;;;;;;10457727;28;20048;-65
2021/04/18 17:39:05;;;;;;;27.27;5.97;;;10.60;88.70;;;;;;10456971;28;20531;-68
2021/04/18 17:44:07;;;;;;;23.73;5.38;;;10.40;90.20;;;;;;10460133;28;20150;-65
2021/04/18 17:49:09;;;;;;;24.75;5.45;;;10.20;91.20;;;;;;10456154;28;20163;-65
2021/04/18 17:54:10;;;;;;;31.00;6.70;;;9.90;91.60;;;;;;10457840;28;20086;-67
2021/04/18 17:59:11;;;;;;;30.50;6.88;;;9.80;92.10;;;;;;10458027;28;20067;-66
2021/04/18 18:04:13;;;;;;;29.25;6.63;;;9.70;92.40;;;;;;10457052;28;20143;-66
2021/04/18 18:09:15;;;;;;;23.63;6.75;;;9.50;93.20;;;;;;10456735;28;20082;-67
2021/04/18 18:14:16;;;;;;;25.52;6.55;;;9.30;93.10;;;;;;10458755;28;20829;-66
2021/04/18 18:19:19;;;;;;;35.92;7.32;;;9.20;93.20;;;;;;10457656;28;20484;-67
2021/04/18 18:24:21;;;;;;;31.40;7.55;;;9.00;93.70;;;;;;10457025;28;20036;-66
2021/04/18 18:29:22;;;;;;;39.30;7.38;;;8.90;94.00;;;;;;10457654;28;20055;-67
2021/04/18 18:34:24;;;;;;;27.27;8.00;;;8.40;95.50;;;;;;10456003;28;21047;-69
2021/04/18 18:39:25;;;;;;;32.73;8.77;;;8.50;94.60;;;;;;10458402;28;21610;-67
2021/04/18 18:44:27;;;;;;;26.40;8.32;;;8.10;96.50;;;;;;10454836;28;20064;-67
2021/04/18 18:49:29;;;;;;;28.73;8.07;;;8.30;95.40;;;;;;10456418;28;20562;-68
2021/04/18 18:54:31;;;;;;;35.37;9.27;;;8.10;95.60;;;;;;10456017;28;20047;-68
2021/04/18 18:59:32;;;;;;;31.90;7.80;;;8.00;96.10;;;;;;10455663;28;20131;-68
2021/04/18 19:04:35;;;;;;;28.92;9.00;;;7.90;96.40;;;;;;10455318;28;20477;-68
2021/04/18 19:09:36;;;;;;;28.50;9.40;;;7.80;97.00;;;;;;10455506;28;20373;-68
2021/04/18 19:14:40;;;;;;;25.35;7.05;;;7.70;97.40;;;;;;10457757;28;20087;-68
2021/04/18 19:19:42;;;;;;;24.48;8.00;;;7.60;97.50;;;;;;10458041;28;20052;-68
2021/04/18 19:24:43;;;;;;;31.20;7.93;;;7.60;97.90;;;;;;10450306;28;20488;-67
2021/04/18 19:29:45;;;;;;;29.55;6.97;;;8.00;98.00;;;;;;10446305;28;20061;-68
2021/04/18 19:34:47;;;;;;;27.45;7.60;;;7.40;98.40;;;;;;10451786;28;20123;-68
2021/04/18 19:39:49;;;;;;;44.58;8.13;;;7.40;98.50;;;;;;10452817;28;20143;-68
2021/04/18 19:44:51;;;;;;;28.88;7.32;;;7.30;98.90;;;;;;10452784;28;20620;-68
2021/04/18 19:49:53;;;;;;;33.30;7.80;;;7.30;99.90;;;;;;10451816;28;20056;-68
2021/04/18 19:54:54;;;;;;;34.08;7.35;;;7.20;99.40;;;;;;10452779;28;20045;-68
2021/04/18 19:59:56;;;;;;;20.33;7.38;;;7.20;99.50;;;;;;10451011;28;20157;-69
2021/04/18 20:05:01;;;;;;;38.92;8.00;;;7.10;99.80;;;;;;10453620;28;20049;-69
2021/04/18 20:10:04;;;;;;;48.03;8.85;;;7.10;99.90;;;;;;10453141;28;20045;-69
2021/04/18 20:15:06;;;;;;;48.40;7.35;;;7.00;99.90;;;;;;10453134;28;20716;-69
2021/04/18 20:20:12;;;;;;;38.78;7.80;;;7.00;99.90;;;;;;10451121;28;20068;-70
2021/04/18 20:25:14;;;;;;;34.10;8.43;;;6.70;99.90;;;;;;10451240;28;20072;-69
2021/04/18 20:30:17;;;;;;;64.93;17.50;;;7.00;99.90;;;;;;10454876;28;20045;-69
2021/04/18 20:35:19;;;;;;;47.55;9.70;;;6.80;99.90;;;;;;10461309;28;20049;-69
2021/04/18 20:40:20;;;;;;;36.67;10.47;;;6.90;99.90;;;;;;10462651;28;20692;-68
2021/04/18 20:45:22;;;;;;;40.72;11.57;;;6.90;99.90;;;;;;10462894;28;20132;-69
2021/04/18 20:50:24;;;;;;;47.85;11.52;;;6.70;99.90;;;;;;10462310;28;20054;-69
2021/04/18 20:55:26;;;;;;;29.42;9.27;;;6.80;99.90;;;;;;10463844;28;20056;-69
2021/04/18 21:00:30;;;;;;;38.83;11.25;;;6.80;99.90;;;;;;10461331;28;20071;-69
2021/04/18 21:05:32;;;;;;;29.85;10.20;;;6.70;99.90;;;;;;10460192;28;20132;-68
2021/04/18 21:10:34;;;;;;;41.03;9.60;;;6.70;99.90;;;;;;10460820;28;20052;-68
2021/04/18 21:15:35;;;;;;;54.90;11.73;;;6.60;99.90;;;;;;10459346;28;21517;-68
2021/04/18 21:20:38;;;;;;;46.22;11.25;;;6.70;99.90;;;;;;10460434;28;20056;-68
2021/04/18 21:25:39;;;;;;;41.30;11.20;;;6.50;99.90;;;;;;10461542;28;20156;-69
2021/04/18 21:30:41;;;;;;;35.97;10.65;;;6.40;99.90;;;;;;10459368;28;20477;-68
2021/04/18 21:35:44;;;;;;;31.87;10.47;;;6.50;99.90;;;;;;10457864;28;20140;-68
2021/04/18 21:40:46;;;;;;;44.23;12.63;;;6.40;99.90;;;;;;10459041;28;20126;-68
2021/04/18 21:45:47;;;;;;;44.10;12.07;;;6.20;99.90;;;;;;10433586;28;20052;-68
2021/04/18 21:50:50;;;;;;;47.92;12.60;;;6.20;99.90;;;;;;10456698;28;20052;-69
2021/04/18 21:55:52;;;;;;;45.60;12.88;;;6.20;99.90;;;;;;10455319;28;20140;-69
2021/04/18 22:00:53;;;;;;;45.95;14.82;;;6.10;99.90;;;;;;10457529;28;20147;-69
2021/04/18 22:05:56;;;;;;;49.28;15.00;;;6.10;99.90;;;;;;10457455;28;20049;-69
2021/04/18 22:10:58;;;;;;;53.05;16.48;;;6.10;99.90;;;;;;10457939;28;20489;-68
2021/04/18 22:15:59;;;;;;;55.67;18.23;;;6.10;99.90;;;;;;10457024;28;20055;-68
2021/04/18 22:21:02;;;;;;;54.95;18.83;;;6.10;99.90;;;;;;10457721;28;20056;-68
2021/04/18 22:26:03;;;;;;;59.13;20.17;;;6.10;99.90;;;;;;10455583;28;20119;-68
2021/04/18 22:31:05;;;;;;;59.05;19.73;;;6.10;99.90;;;;;;10456557;28;20487;-70
2021/04/18 22:36:07;;;;;;;54.08;20.05;;;6.10;99.90;;;;;;10454129;28;20135;-68
2021/04/18 22:41:08;;;;;;;68.30;22.07;;;6.10;99.90;;;;;;10453430;28;20429;-68
2021/04/18 22:46:10;;;;;;;67.97;23.15;;;6.10;99.90;;;;;;10453067;28;20121;-69
2021/04/18 22:51:12;;;;;;;59.38;23.92;;;6.20;99.90;;;;;;10454486;28;20055;-67
2021/04/18 22:56:13;;;;;;;71.28;24.17;;;6.20;99.90;;;;;;10455263;28;20135;-69
2021/04/18 23:01:15;;;;;;;73.20;26.63;;;6.20;99.90;;;;;;10453902;28;20139;-68
2021/04/18 23:06:17;;;;;;;64.95;25.13;;;6.20;99.90;;;;;;10455422;28;20053;-68
2021/04/18 23:11:19;;;;;;;94.22;28.02;;;6.10;99.90;;;;;;10453748;28;20140;-68
2021/04/18 23:16:20;;;;;;;63.63;24.83;;;6.20;99.90;;;;;;10451145;28;20058;-68
2021/04/18 23:21:22;;;;;;;74.53;27.95;;;6.30;99.90;;;;;;10453481;28;20055;-68
2021/04/18 23:26:24;;;;;;;82.00;28.65;;;6.00;99.90;;;;;;10452776;28;20060;-68
2021/04/18 23:31:25;;;;;;;85.28;31.15;;;6.00;99.90;;;;;;10453209;28;20048;-67
2021/04/18 23:36:27;;;;;;;82.28;29.05;;;6.00;99.90;;;;;;10448496;28;20049;-68
2021/04/18 23:41:29;;;;;;;89.18;30.13;;;6.00;99.90;;;;;;10453171;28;20041;-68
2021/04/18 23:46:30;;;;;;;90.95;29.60;;;6.00;99.90;;;;;;10450895;28;20401;-68
2021/04/18 23:51:32;;;;;;;72.25;29.60;;;5.80;99.90;;;;;;10450720;28;20086;-68
2021/04/18 23:56:34;;;;;;;81.60;29.17;;;5.80;99.90;;;;;;10452104;28;20037;-68
